Ritsu Morita

Chefscout - FC Tokyo
5 Dez 2027
Sonntag
Verarbeitung

Persönlichkeit

Anpassungsfähigkeit (11) Ehrgeiz (10) Kontroverse (14) Loyalität (17) Druck (15) Professionalität (11) Fairness (9) Temperament (3)

Profil

Trainerstil Demokratisch
Lizenz Nationale A
Entschlossenheit 5
Menschenführung 9
Motivation 9
Disziplin 12
Arbeitszufriedenheit
100%
Ermüdung
0%
Rolle Chefscout
Gehalt 51.0K p/W
Vertrag 14.03.2028

Leistung

Verhalten Gut
Trainingseffektivität
38%
Spielerentwicklung
30%
Verletzungsprävention
30%
Taktische Umsetzung
25%

Letzte Ereignisse

Empfahl ein Transferziel jetzt
Empfahl ein Transferziel jetzt
Empfahl ein Transferziel jetzt
Empfahl ein Transferziel jetzt
Empfahl ein Transferziel jetzt
Empfahl ein Transferziel jetzt
Nahm an einer Scouting-Besprechung teil jetzt
Spieler begutachtet jetzt

Aktuell beobachtet

245
Spieler Verein Status Fähigkeit Vertrauen Beobachtet Zuletzt beobachtet Letzte Stimme
Yang Min-Hyeok Stevenage Aktiv 134 / 135 40% 5 04.12.2027 -
Luka Andrade Montevideo City Torque Aktiv 100 / 107 40% 5 04.12.2027 -
Tiago Fortaleza Aktiv 110 / 123 40% 1 04.12.2027 -
Mateo Peralta Danubio Aktiv 115 / 123 40% 6 03.12.2027 -
Seun Agboola Ikorodu City Aktiv 85 / 101 40% 3 03.12.2027 -
Alex Amaefula Kun Khalifat Aktiv 87 / 92 40% 3 03.12.2027 -
Joel Ezra Enyimba Aktiv 102 / 106 40% 8 02.12.2027 -
Valentino Acuña Newell's Old Boys Aktiv 107 / 122 40% 2 02.12.2027 -
Alex Verón Vélez Aktiv 112 / 129 40% 2 02.12.2027 -
Chimobi Igwilo Rangers International Aktiv 98 / 96 40% 3 28.11.2027 -
Eli Junior Kroupi Swansea City Aktiv 146 / 151 40% 2 28.11.2027 -
Emiliano Zambrano Gimnasia y Esgrima Aktiv 89 / 93 40% 2 26.11.2027 -
Mikkel Hope Haugesund Aktiv 99 / 104 40% 4 26.11.2027 -
Oskar Spiten-Nysæter Molde Aktiv 113 / 113 40% 3 24.11.2027 -
Dylan Salvo Defensores Unidos Aktiv 95 / 99 40% 3 24.11.2027 -
Gaku Nawata Gamba Osaka Aktiv 120 / 114 40% 1 23.11.2027 -
Emmanuel Ndubueze Shooting Stars Aktiv 95 / 98 40% 4 22.11.2027 -
Musa Malik Ikorodu City Aktiv 95 / 85 40% 3 22.11.2027 -
Ryunosuke Sato Betis Aktiv 132 / 142 40% 7 20.11.2027 -
Andres Rondon Llaneros Aktiv 89 / 85 40% 4 20.11.2027 -
Chinedu Nwosu Bendel Insurance Aktiv 88 / 91 40% 4 20.11.2027 -
Dylan Cabral Arsenal Aktiv 98 / 100 40% 1 19.11.2027 -
Alexis Rodríguez Metropolitanos Aktiv 98 / 104 40% 1 17.11.2027 -
Joseph Lucas KAA Gent Aktiv 124 / 133 40% 1 14.11.2027 -
Mustapha Umar Kano Pillars Aktiv 99 / 83 40% 2 11.11.2027 -
Onuorah Onyedika Kun Khalifat Aktiv 88 / 94 40% 1 11.11.2027 -
Kauã Elias Club Brugge Aktiv 138 / 137 40% 2 10.11.2027 -
Adrian Skogmar Malmo FF Aktiv 105 / 124 40% 2 08.11.2027 -
Yotaro Nakajima Sanfrecce Hiroshima Aktiv 110 / 118 40% 1 08.11.2027 -
Hajime Hidaka Omiya Ardija Aktiv 81 / 97 40% 5 05.11.2027 -
Maren Kefas Plateau United Aktiv 95 / 87 40% 3 04.11.2027 -
Sebastián Ramírez America de Cali Aktiv 109 / 120 40% 3 02.11.2027 -
Estêvão Exeter City Aktiv 141 / 147 40% 1 01.11.2027 -
Julián Bragado Morón Aktiv 80 / 89 40% 1 30.10.2027 -
Bautista Carboni Defensores Unidos Aktiv 113 / 112 40% 3 25.10.2027 -
Gustavo Lozano Deportivo Tachira Aktiv 96 / 94 40% 1 25.10.2027 -
Tiziano Noriega Tristán Suárez Aktiv 93 / 105 40% 2 24.10.2027 -
Gideon Manaseh Ikorodu City Aktiv 80 / 101 40% 1 24.10.2027 -
Thiago D'Archivio Alvarado Aktiv 87 / 82 40% 2 23.10.2027 -
Hassan Beja AFC Leopards Aktiv 99 / 83 40% 1 22.10.2027 -
Joseph Abah Remo Stars Aktiv 90 / 98 40% 3 19.10.2027 -
Pablo Suárez Rentistas Aktiv 98 / 102 40% 1 14.10.2027 -
Christ Wawa Helsingborg Aktiv 92 / 106 40% 1 14.10.2027 -
Sunday Aniebet Enyimba Aktiv 99 / 87 40% 2 13.10.2027 -
Bryan Caicedo Leones Aktiv 95 / 99 40% 1 06.10.2027 -
Abubakar Garba Nasarawa United Aktiv 95 / 95 40% 1 05.10.2027 -
Seiya Baba Kashiwa Reysol Verloren 100 / 106 69% 1 02.08.2027 -
Dylan Moody Grimsby Town Aktiv 106 / 117 40% 2 23.07.2027 -
Mao Hosoya Anderlecht Verhandlung 134 / 135 90% 1 22.07.2027 Befürworten
Martin Cedidla Hajduk Split Verhandlung 131 / 132 66% 1 22.07.2027 Befürworten
Pablo Solari Krasnodar Verhandlung 128 / 128 67% 1 22.07.2027 Befürworten
Gonçalo Oliveira Benfica Aktiv 114 / 120 40% 8 20.07.2027 -
Leonardo Mendicino Bari Aktiv 114 / 123 40% 7 20.07.2027 -
Vasco Santos Oliveirense Aktiv 92 / 100 40% 4 20.07.2027 -
João Fonseca Benfica Aktiv 109 / 118 40% 8 19.07.2027 -
Caleb Yirenkyi Coventry City Aktiv 137 / 148 40% 8 18.07.2027 -
Tom Atcheson Crewe Alexandra Aktiv 121 / 127 40% 7 18.07.2027 -
Yusi Real Sociedad Aktiv 135 / 133 40% 2 18.07.2027 -
Juan Giménez Rayo Vallecano Aktiv 124 / 126 40% 8 15.07.2027 -
Sascha Britschgi Cosenza Aktiv 127 / 121 40% 7 15.07.2027 -
Mattia Puzone Siracusa Aktiv 96 / 112 40% 4 15.07.2027 -
Mamour N'Diaye Bodo/Glimt Aktiv 112 / 122 40% 4 15.07.2027 -
Julian Eyestone Brentford Aktiv 124 / 135 40% 1 14.07.2027 -
Franco Villalba Vélez Aktiv 94 / 99 40% 3 13.07.2027 -
Axel Afonso Atlético Tucumán Aktiv 92 / 103 40% 2 13.07.2027 -
Ben Cisse Peterborough United Aktiv 96 / 97 40% 1 13.07.2027 -
Christ Inao Oulaï Fiorentina Aktiv 135 / 137 40% 10 11.07.2027 -
Riley Owen Peterborough United Aktiv 102 / 117 40% 8 10.07.2027 -
Luther Kekana SuperSport United Aktiv 95 / 108 40% 2 09.07.2027 -
Finley McAllister Wigan Athletic Aktiv 90 / 93 40% 1 09.07.2027 -
Jonathan De Irastorza Levante Aktiv 117 / 122 40% 4 07.07.2027 -
Alex Tóth Bournemouth Aktiv 119 / 130 40% 5 07.07.2027 -
Lennon Miller AC Milan Aktiv 140 / 142 40% 10 06.07.2027 -
Josh King Charlton Athletic Aktiv 136 / 148 40% 8 05.07.2027 -
Issa Yusuf Shooting Stars Aktiv 75 / 98 40% 1 04.07.2027 -
Agustín Medina Athletic Bilbao Aktiv 121 / 132 40% 6 03.07.2027 -
Victor Ehibe Ashanti Gold Aktiv 86 / 83 40% 6 03.07.2027 -
Maeson King Barnsley Aktiv 111 / 121 40% 3 03.07.2027 -
Yaw Owusu Liberty Professionals Aktiv 79 / 91 40% 1 02.07.2027 -
Eduardo Felicíssimo Sporting CP Aktiv 121 / 128 40% 4 01.07.2027 -
Rhys Chadwick Burton Albion Aktiv 93 / 105 40% 7 29.06.2027 -
Joel McGregor Swindon Town Aktiv 101 / 95 40% 7 25.06.2027 -
Claudio Martey Pianese Aktiv 85 / 88 40% 4 25.06.2027 -
Marcos Ferreira Miramar Misiones Aktiv 102 / 101 40% 1 25.06.2027 -
Tommaso Cecotti Carpi Aktiv 92 / 102 40% 4 21.06.2027 -
Gonçalo Silva Porto Aktiv 79 / 91 40% 1 19.06.2027 -
Afriyie Schlupp Hasaacas Aktiv 84 / 84 40% 1 19.06.2027 -
Leonardo Sosa Rosario Central Aktiv 93 / 107 40% 2 17.06.2027 -
Dylan Peraić-Cullen Central Coast Mariners Aktiv 97 / 113 40% 1 17.06.2027 -
Luka Kolar NK Domzale Aktiv 116 / 111 40% 2 15.06.2027 -
Lisandro Musso Central Córdoba SdE Aktiv 88 / 101 40% 1 15.06.2027 -
Ayoub Akabou Ceuta Aktiv 87 / 101 40% 1 10.06.2027 -
Edwin Asamoah Berekum Chelsea Aktiv 94 / 89 40% 5 06.06.2027 -
Ollie Scarles West Ham United Aktiv 130 / 135 40% 1 04.06.2027 -
Benjamin Twum Chikhura Aktiv 82 / 86 40% 2 02.06.2027 -
Louis Leroux FC Nantes Aktiv 131 / 127 40% 3 31.05.2027 -
Leandro Martins Benfica Aktiv 94 / 100 40% 4 30.05.2027 -
Taras Mykhavko Dynamo Kyiv Aktiv 131 / 128 40% 5 23.05.2027 -
Jorge Sánchez Deportivo La Guaira Aktiv 89 / 97 40% 1 23.05.2027 -
Le Keun Hyeong Kawasaki Frontale Aktiv 74 / 86 40% 1 23.05.2027 -
Harrison Armstrong Hull City Aktiv 122 / 130 40% 5 18.05.2027 -
Kermit Ngcobo Free State Stars Aktiv 101 / 103 40% 2 16.05.2027 -
Alejandro Almaraz Eibar Aktiv 105 / 116 40% 3 16.05.2027 -
Lucas Bergvall Tottenham Aktiv 142 / 156 40% 4 13.05.2027 -
Karim Coulibaly RC Strasbourg Aktiv 115 / 124 40% 1 06.05.2027 -
Lautaro Cueli San Lorenzo Aktiv 92 / 101 40% 2 30.04.2027 -
Fernando Bravo Independiente Rivadavia Aktiv 99 / 102 40% 1 30.04.2027 -
Luke Campbell Millwall Aktiv 87 / 97 40% 1 29.04.2027 -
Salko Hamzić Sturm Graz Aktiv 109 / 113 40% 1 28.04.2027 -
Jake Batty Peterborough United Aktiv 95 / 106 40% 1 26.04.2027 -
Bernardo Lima Porto Aktiv 97 / 105 40% 2 25.04.2027 -
Muhammadyusuf Sobirov Bunyodkor Aktiv 91 / 116 40% 1 25.04.2027 -
Ronwen Vilakazi Ajax Cape Town Aktiv 89 / 98 40% 4 20.04.2027 -
Davi Barbosa Vitória Aktiv 88 / 100 40% 1 17.04.2027 -
Sean Fusire Sheffield Wednesday Aktiv 107 / 112 40% 2 12.04.2027 -
James Dornelly Peterborough United Aktiv 102 / 115 40% 5 08.04.2027 -
Tiziano Van Der Tuin Estudiantes Aktiv 95 / 112 40% 1 07.04.2027 -
Khama Dolly Ajax Cape Town Aktiv 98 / 89 40% 1 07.04.2027 -
Luca Lipani Monopoli Aktiv 121 / 120 40% 2 05.04.2027 -
Matthias Da Silva Olympique Lyonnais Aktiv 90 / 88 40% 1 05.04.2027 -
Luca Martelli Forli Aktiv 89 / 94 40% 1 05.04.2027 -
Dylan Martínez River Plate Aktiv 91 / 107 40% 1 05.04.2027 -
Alessandro Zoboletti Sambenedettese Aktiv 89 / 102 40% 2 30.03.2027 -
David Ozoh Derby County Aktiv 128 / 123 40% 6 23.03.2027 -
Christos Mouzakitis Hull City Aktiv 128 / 138 40% 3 20.03.2027 -
Noah Maieroni Brisbane Roar Aktiv 100 / 101 40% 1 25.02.2027 -
Arjan Malić Sturm Graz Aktiv 111 / 117 40% 3 10.02.2027 -
Dmitry Pestryakov Spartak Moscow Aktiv 116 / 105 40% 1 04.02.2027 -
Vanja Dragojević Partizan Aktiv 122 / 130 40% 1 18.01.2027 -
Tom Cannon Sheffield United Aktiv 121 / 128 40% 1 06.01.2027 -
Sunusi Ibrahim Cotonsport Garoua Aktiv 111 / 104 40% 1 06.01.2027 -
Rumarn Burrell Queens Park Rangers Aktiv 123 / 129 40% 1 06.01.2027 -
Joe Gelhardt Birmingham Verhandlung 130 / 131 66% 1 05.01.2027 Befürworten
Konstantin Tyukavin KV Mechelen Verhandlung 132 / 133 66% 1 05.01.2027 Befürworten
Gonzalo Plata Universitario Verhandlung 133 / 134 66% 1 05.01.2027 Befürworten
Haissem Hassan Bloemfontein Celtic Aktiv 136 / 121 40% 7 04.01.2027 -
Léo Pereira CSKA Sofia Aktiv 125 / 123 40% 3 03.01.2027 -
Zeki Amdouni Burnley Aktiv 137 / 129 40% 2 03.01.2027 -
Tyrese Campbell Sheffield United Aktiv 136 / 124 40% 3 02.01.2027 -
Scott Twine Bristol City Aktiv 130 / 128 40% 1 02.01.2027 -
Juan Bezerra Zamalek Aktiv 108 / 119 40% 2 01.01.2027 -
Mohamed Belloumi Hull City Aktiv 139 / 142 40% 1 01.01.2027 -
Finn Azaz Southampton Aktiv 122 / 123 40% 2 31.12.2026 -
Brooke Norton-Cuffy Hull City Aktiv 131 / 134 40% 3 30.12.2026 -
Sota Kitano Mainz 05 Aktiv 120 / 131 40% 1 30.12.2026 -
John Mercado Sparta Prague Aktiv 126 / 122 40% 2 29.12.2026 -
Milan van Ewijk Coventry City Aktiv 136 / 126 40% 3 29.12.2026 -
Adrián Bernabé Parma Aktiv 145 / 141 40% 2 29.12.2026 -
Nail Umyarov Spartak Moscow Aktiv 138 / 122 40% 1 29.12.2026 Mehr Infos nötig
Romano Schmid Frosinone Aktiv 147 / 133 40% 1 26.12.2026 -
Marcelo Allende Mamelodi Sundowns Aktiv 136 / 120 40% 3 25.12.2026 -
Ilyas Ansah Hull City Aktiv 129 / 137 40% 3 25.12.2026 -
Harrison Burrows Sheffield United Aktiv 125 / 130 40% 2 25.12.2026 -
Luke McNally Bristol City Aktiv 128 / 137 40% 1 25.12.2026 -
Lewis Gibson Preston Aktiv 120 / 119 40% 1 25.12.2026 -
Ethan Galbraith Swansea City Aktiv 126 / 129 40% 1 23.12.2026 -
Tim Iroegbunam Hull City Aktiv 140 / 143 40% 2 22.12.2026 -
Reda Khadra Qarabag Aktiv 121 / 134 40% 6 21.12.2026 -
Dara O'Shea Ipswich Town Aktiv 142 / 131 40% 2 21.12.2026 -
Issa Kaboré Wrexham Aktiv 136 / 133 40% 2 21.12.2026 -
Relebohile Mofokeng Orlando Pirates Aktiv 131 / 125 40% 3 21.12.2026 -
Bobby Clark Derby County Aktiv 125 / 129 40% 1 21.12.2026 -
Jacob Greaves Ipswich Town Aktiv 130 / 125 40% 1 21.12.2026 -
Suleiman Camara Slovan Bratislava Aktiv 118 / 117 40% 4 19.12.2026 -
Peter Federico Gornik Zabrze Aktiv 119 / 130 40% 2 17.12.2026 -
Koki Saito Queens Park Rangers Aktiv 132 / 125 40% 4 16.12.2026 -
Petar Stanić Ludogorets Aktiv 136 / 147 40% 2 16.12.2026 -
Ammar Ramadan DAC Dunajska Streda Aktiv 118 / 122 40% 2 13.12.2026 -
Jack Rudoni Coventry City Aktiv 133 / 131 40% 1 13.12.2026 -
Asahi Uenaka Gamba Osaka Aktiv 125 / 121 40% 5 12.12.2026 -
Derik Lacerda Kawasaki Frontale Aktiv 124 / 123 40% 4 11.12.2026 -
Christian Krasnodar Aktiv 143 / 132 40% 3 11.12.2026 -
Tom Fellows Southampton Aktiv 137 / 129 40% 1 09.12.2026 -
Florentino Luís Ipswich Town Aktiv 142 / 141 40% 2 08.12.2026 -
Michael Baidoo Plymouth Argyle Aktiv 127 / 121 40% 1 06.12.2026 -
Adam Randell Bristol City Aktiv 133 / 136 40% 1 06.12.2026 -
Odilon Kossounou Atalanta Aktiv 152 / 148 40% 1 06.12.2026 -
Matthias Seidl Rapid Wien Aktiv 134 / 120 40% 1 05.12.2026 -
Alex Robertson Cardiff City Aktiv 112 / 122 40% 1 29.11.2026 -
Matheus Thuler Vissel Kobe Aktiv 137 / 138 40% 2 28.11.2026 -
Shuto Nakano Sanfrecce Hiroshima Aktiv 122 / 139 40% 4 28.11.2026 -
Rubens Dinamo Moscow Aktiv 125 / 137 40% 3 28.11.2026 -
Habib Diarra Sunderland Aktiv 139 / 142 40% 2 26.11.2026 -
João Gomes Aston Villa Aktiv 137 / 144 40% 1 26.11.2026 -
Ronald Swansea City Aktiv 125 / 126 40% 2 24.11.2026 -
Akinkunmi Amoo HNK Rijeka Aktiv 117 / 113 40% 1 24.11.2026 -
Yuta Goke Vissel Kobe Aktiv 126 / 117 40% 3 21.11.2026 -
Stanley Mills Oxford United Aktiv 114 / 126 40% 1 18.11.2026 -
Caspar Jander Southampton Aktiv 120 / 136 40% 1 18.11.2026 -
Jonathan Varane Queens Park Rangers Aktiv 129 / 122 40% 1 16.11.2026 -
Gedson Fernandes Spartak Moscow Aktiv 142 / 124 40% 1 16.11.2026 -
Bosun Lawal Stoke City Aktiv 132 / 132 40% 1 16.11.2026 -
Petter Nosa Dahl Rapid Wien Aktiv 128 / 124 40% 3 13.11.2026 -
Riku Yamane Yokohama F. Marinos Aktiv 133 / 136 40% 3 12.11.2026 -
Tariq Lamptey Queens Park Rangers Aktiv 141 / 135 40% 1 12.11.2026 -
Esequiel Barco Spartak Moscow Aktiv 127 / 143 40% 2 10.11.2026 -
Gabriel Pereira FC Copenhagen Aktiv 144 / 141 40% 1 10.11.2026 -
Alexandr Chernikov Krasnodar Aktiv 133 / 124 40% 1 10.11.2026 -
Reon Yamahara Kawasaki Frontale Aktiv 130 / 116 40% 2 08.11.2026 -
Antonio Galeano Remo Stars Aktiv 113 / 134 40% 5 08.11.2026 -
Álex Centelles Levski Aktiv 113 / 117 40% 1 08.11.2026 -
Emil Breivik Molde Aktiv 135 / 142 40% 2 07.11.2026 -
Hijiri Kato Omiya Ardija Aktiv 117 / 121 40% 1 04.11.2026 -
Hiroto Taniguchi Kawasaki Frontale Aktiv 129 / 120 40% 1 03.11.2026 -
Yota Komi Kashiwa Reysol Aktiv 119 / 129 40% 5 31.10.2026 -
Sota Miura Kawasaki Frontale Aktiv 113 / 114 40% 4 30.10.2026 -
Kings Kangwa Panathinaikos Aktiv 135 / 147 40% 1 30.10.2026 -
Ryuya Nishio Omiya Ardija Aktiv 125 / 131 40% 1 30.10.2026 -
Joel Mvuka Bodo/Glimt Aktiv 132 / 133 40% 1 27.10.2026 -
Amar Memić Viktoria Plzen Aktiv 125 / 120 40% 1 26.10.2026 -
Asahi Sasaki Kawasaki Frontale Aktiv 116 / 133 40% 1 25.10.2026 -
Danil Glebov Dinamo Moscow Aktiv 123 / 120 40% 1 25.10.2026 -
Jens Petter Hauge Bodo/Glimt Aktiv 127 / 134 40% 3 22.10.2026 -
Marquinhos Spartak Moscow Aktiv 131 / 140 40% 4 22.10.2026 -
Daiya Tono Yokohama F. Marinos Aktiv 120 / 125 40% 3 20.10.2026 -
Daiju Sasaki Vissel Kobe Aktiv 110 / 113 40% 1 18.10.2026 -
Oleh Ocheretko Shakhtar Aktiv 137 / 141 40% 1 17.10.2026 -
Shunki Higashi Sanfrecce Hiroshima Aktiv 126 / 127 40% 2 12.10.2026 -
Erik Botheim Viking Aktiv 116 / 136 40% 1 12.10.2026 -
Nobuteru Nakagawa Kashiwa Reysol Aktiv 111 / 130 40% 3 11.10.2026 -
Gabriel Busanello Malmo FF Aktiv 121 / 117 40% 1 09.10.2026 -
Robert FC Copenhagen Aktiv 120 / 131 40% 2 07.10.2026 -
Riku Handa Gamba Osaka Aktiv 124 / 121 40% 3 07.10.2026 -
Kohei Okuno Avispa Fukuoka Aktiv 118 / 123 40% 2 05.10.2026 -
Tojiro Kubo Kashiwa Reysol Aktiv 136 / 130 40% 3 05.10.2026 -
Andile Vilakazi Free State Stars Aktiv 125 / 113 40% 1 01.10.2026 -
Yuto Ozeki Albirex Niigata Aktiv 111 / 130 40% 2 20.09.2026 -
Ezra Mayers West Ham United Aktiv 118 / 124 40% 1 20.09.2026 -
Jack Fletcher Manchester United Aktiv 97 / 114 40% 1 17.09.2026 -
Agustín Obregón River Plate Aktiv 114 / 123 40% 1 16.09.2026 -
Veljko Milosavljević Newcastle United Aktiv 135 / 135 40% 2 14.09.2026 -
Taiyo Koga Kashiwa Reysol Aktiv 146 / 137 40% 1 13.09.2026 -
Rodrigo Huescas FC Copenhagen Aktiv 142 / 144 40% 1 13.09.2026 -
Conrad Wallem Bodo/Glimt Aktiv 136 / 126 40% 1 09.09.2026 -
Simphiwe Selepe Orlando Pirates Aktiv 105 / 123 40% 1 09.09.2026 -
Roger Hinojo Espanyol Aktiv 117 / 117 40% 1 08.09.2026 -
Gustavo Albarracín Alavés Aktiv 107 / 118 40% 1 08.09.2026 -
Cemran Dansin Orlando Pirates Aktiv 107 / 125 40% 1 04.09.2026 -
Lautaro Dufur Rentistas Aktiv 97 / 107 40% 1 03.09.2026 -
Roman Dixon Walsall Aktiv 101 / 96 40% 1 02.09.2026 -
Daniel Dennis Ikorodu City Aktiv 80 / 89 40% 1 02.09.2026 -
Morgan Erasmus Free State Stars Aktiv 106 / 105 40% 1 02.09.2026 -
Alexis Fretes Libertad Aktiv 102 / 117 40% 1 30.08.2026 -
Werik Popo Avispa Fukuoka Aktiv 99 / 108 40% 1 03.08.2026 -
Dwight McNeil Crystal Palace Aktiv 143 / 143 40% 1 01.08.2026 -